Accueil
METAR-TAF:

METAR-TAF

Aéroports :

Aéroport de Miri

Miri, Malaisie

latitude: 04-20N, longitude: 113-59E, altitude: 17 m

Observation

Le bulletin a été fait il y a 1 heure et 14 minutes, à 18:00 UTC
Vent calme
Température 25°C
Humidité 100%
Pression 1008 hPa
Visibilité 10 km ou plus
Nuages épars à une hauteur de 1600 ft

METAR: WBGR 241800Z 00000KT 9999 SCT016 25/25 Q1008

Heure: 03:14 (19:14 UTC)

Prévision

Le bulletin a été fait il y a 2 heures et 14 minutes, à 17:00 UTC
Prévision valable du 24 à 18 UTC au 25 à 18 UTC
Vent 3 kt de direction variable
Visibilité 10 km ou plus
Quelques nuages à une hauteur de 1600 ft

TAF: WBGR 241700Z 2418/2518 VRB03KT 9999 FEW016

Observations et prévisions météorologiques de plus de 4000 aéroports (messages METAR et TAF).

Les stations disponibles sont représentées par des disques jaunes et rouges sur la carte.

Passer la souris dessus pour voir le nom de la station.

Cliquer dessus pour voir les observations et prévisions météorologiques.

Pour changer de carte: cliquez sur les boutons verts avec une croix noire pour zoomer, sur le bouton vert avec un tiret pour effectuer un zoom arrière, ou sur les flèches vertes pour les cartes adjacentes.


METAR-TAF: